This is the latest recevied weather packets stored in our database for station/object LRBC. If no packets are shown the sender has not sent any weather packets the latest 10 day(s).
| Time | Temp. | Humidity | Pressure | Rain* | Wind** | Luminosity | Snow |
|---|---|---|---|---|---|---|---|
| 1777619928 | 8.89° C | 46% | 1026 hPa | - | - | - | - |
| 1777619027 | 8.89° C | 46% | 1026 hPa | - | - | - | - |
| 1777618131 | 7.78° C | 46% | 1026 hPa | - | - | - | - |
| 1777617228 | 7.78° C | 46% | 1026 hPa | - | - | - | - |
| 1777616329 | 7.22° C | 53% | 1026 hPa | - | - | - | - |
| 1777615427 | 7.22° C | 53% | 1026 hPa | - | - | - | - |
| 1777614527 | 5° C | 66% | 1026 hPa | - | - | - | - |
| 1777613628 | 5° C | 66% | 1026 hPa | - | - | - | - |
| 1777612728 | 3.89° C | 65% | 1026 hPa | - | - | - | - |
| 1777611827 | 3.89° C | 65% | 1026 hPa | - | - | - | - |
| 1777610927 | 3.89° C | 65% | 1026 hPa | - | - | - | - |
| 1777610027 | 3.89° C | 65% | 1026 hPa | - | - | - | - |
| 1777609127 | 2.78° C | 70% | 1026 hPa | - | - | - | - |
| 1777608228 | 2.78° C | 70% | 1026 hPa | - | - | - | - |
| 1777607327 | 2.78° C | 65% | 1026 hPa | - | - | - | - |
| 1777606427 | 2.78° C | 65% | 1026 hPa | - | - | - | - |
| 1777605527 | 2.78° C | 65% | 1026 hPa | - | - | - | - |
| 1777604628 | 2.78° C | 65% | 1026 hPa | - | - | - | - |
| 1777603725 | 2.78° C | 65% | 1026 hPa | - | - | - | - |
| 1777602827 | 2.78° C | 65% | 1026 hPa | - | - | - | - |
| 1777601927 | 2.78° C | 65% | 1026 hPa | - | - | - | - |
| 1777601027 | 2.78° C | 65% | 1026 hPa | - | - | - | - |
| 1777586627 | 0° C | 69% | 1026 hPa | - | - | - | - |
| 1777585728 | 1.11° C | 70% | 1026 hPa | - | - | - | - |
| 1777583928 | 2.22° C | 65% | 1026 hPa | - | - | - | - |
* Rain since midnight (hover to see other rain measurements)
** Current wind speed in m/s (hover to see current wind gust speed)